Time;durP1;ratioP1;P1;durP2;ratioP2;P2;SDS_P1;SDS_P2;PMS_P1;PMS_P2;Temp;Humidity;BMP_temperature;BMP_pressure;BME280_temperature;BME280_humidity;BME280_pressure;Samples;Min_cycle;Max_cycle;Signal;HPM_P1;HPM_P2
2024/02/14 06:19:18;;;;;;;14.10;4.43;;;2.00;99.90;;;;;;7576786;19;21767;-75
2024/02/14 06:21:50;;;;;;;16.13;4.57;;;2.00;99.90;;;;;;7594765;19;21089;-74
2024/02/14 06:24:22;;;;;;;17.05;4.68;;;2.20;99.90;;;;;;7594698;19;20546;-76
2024/02/14 06:26:55;;;;;;;10.73;4.13;;;2.30;99.90;;;;;;7580651;19;20044;-75
2024/02/14 06:29:27;;;;;;;14.60;4.10;;;2.40;99.90;;;;;;7586833;19;20030;-75
2024/02/14 06:32:00;;;;;;;12.38;3.97;;;2.50;99.90;;;;;;7592544;19;20006;-75
2024/02/14 06:34:32;;;;;;;6.85;3.92;;;2.60;99.90;;;;;;7609966;19;20021;-76
2024/02/14 06:37:04;;;;;;;9.23;4.13;;;2.70;99.90;;;;;;7619539;19;20018;-75
2024/02/14 06:39:36;;;;;;;7.93;4.63;;;2.90;99.90;;;;;;7626665;19;20491;-76
2024/02/14 06:42:09;;;;;;;8.82;3.97;;;3.00;99.90;;;;;;7605739;19;20684;-77
2024/02/14 06:44:41;;;;;;;10.52;3.60;;;3.00;99.90;;;;;;7590764;19;20019;-75
2024/02/14 06:47:13;;;;;;;6.30;3.33;;;3.10;99.90;;;;;;7612053;19;20014;-77
2024/02/14 06:49:46;;;;;;;7.13;3.28;;;3.20;99.90;;;;;;7607226;19;20014;-76
2024/02/14 06:52:18;;;;;;;11.60;3.58;;;3.20;99.90;;;;;;7599294;19;20019;-75
2024/02/14 06:54:50;;;;;;;4.93;2.28;;;3.30;99.90;;;;;;7607520;19;20836;-74
2024/02/14 06:57:22;;;;;;;15.32;3.53;;;3.40;99.90;;;;;;7600855;19;20736;-74
2024/02/14 06:59:55;;;;;;;9.07;3.03;;;3.50;99.90;;;;;;7588642;19;20026;-75
2024/02/14 07:02:28;;;;;;;9.02;3.42;;;3.40;99.90;;;;;;7617265;19;20011;-75
2024/02/14 07:05:02;;;;;;;7.82;3.55;;;3.60;99.90;;;;;;7648126;19;20161;-75
2024/02/14 07:07:36;;;;;;;10.45;4.15;;;3.70;99.90;;;;;;7618310;19;20720;-77
2024/02/14 07:10:09;;;;;;;23.23;9.25;;;3.70;99.90;;;;;;7623677;19;20541;-76
2024/02/14 07:12:41;;;;;;;9.80;4.35;;;3.60;99.90;;;;;;7604312;19;20017;-74
2024/02/14 07:15:13;;;;;;;11.52;3.70;;;3.80;99.90;;;;;;7619545;19;20022;-76
2024/02/14 07:17:49;;;;;;;7.15;3.25;;;3.80;99.90;;;;;;7585567;19;20459;-75
2024/02/14 07:20:22;;;;;;;5.17;2.63;;;3.80;99.90;;;;;;7600547;19;20017;-73
2024/02/14 07:22:56;;;;;;;7.85;3.30;;;3.80;99.90;;;;;;7595911;19;20011;-75
2024/02/14 07:25:29;;;;;;;7.60;2.53;;;3.90;99.90;;;;;;7612580;19;20010;-74
2024/02/14 07:28:02;;;;;;;4.78;2.80;;;3.90;99.90;;;;;;7572629;19;20014;-73
2024/02/14 07:30:35;;;;;;;8.23;2.88;;;4.00;99.90;;;;;;7581898;19;20054;-75
2024/02/14 07:33:08;;;;;;;9.65;3.20;;;4.00;99.90;;;;;;7586001;19;20880;-74
2024/02/14 07:35:40;;;;;;;8.40;3.28;;;4.10;99.90;;;;;;7595471;19;20102;-75
2024/02/14 07:38:13;;;;;;;10.98;3.67;;;4.20;99.90;;;;;;7590630;19;20014;-75
2024/02/14 07:40:45;;;;;;;9.30;3.13;;;4.20;99.90;;;;;;7585793;19;20922;-76
2024/02/14 07:43:25;;;;;;;9.23;3.28;;;4.30;99.90;;;;;;7590479;19;21130;-74
2024/02/14 07:45:57;;;;;;;5.10;2.38;;;4.50;99.90;;;;;;7582557;19;20503;-75
2024/02/14 07:48:30;;;;;;;7.90;3.30;;;4.50;99.90;;;;;;7529085;19;20011;-76
2024/02/14 07:51:08;;;;;;;7.65;3.08;;;4.60;99.90;;;;;;7538136;19;20014;-76
2024/02/14 07:53:41;;;;;;;6.40;2.13;;;4.60;99.90;;;;;;7500447;19;20022;-75
2024/02/14 07:56:14;;;;;;;;;;;4.60;99.90;;;;;;7541354;19;21233;-76
2024/02/14 07:58:47;;;;;;;5.32;1.98;;;4.70;99.90;;;;;;7561231;19;21461;-75
2024/02/14 08:01:20;;;;;;;3.03;1.90;;;4.80;99.90;;;;;;7587490;19;20018;-75
2024/02/14 08:03:52;;;;;;;4.28;2.38;;;4.90;99.90;;;;;;7571601;19;21474;-74
2024/02/14 08:06:24;;;;;;;6.05;2.78;;;5.00;99.90;;;;;;7578100;19;20030;-75
2024/02/14 08:09:01;;;;;;;4.75;1.92;;;5.00;99.90;;;;;;7558072;19;20018;-75
2024/02/14 08:11:34;;;;;;;3.65;1.98;;;5.10;99.90;;;;;;7586298;19;20231;-75
2024/02/14 08:14:06;;;;;;;5.03;2.22;;;5.10;99.90;;;;;;7575416;19;20072;-75
2024/02/14 08:16:39;;;;;;;4.30;2.03;;;5.20;99.90;;;;;;7599237;19;20015;-75
2024/02/14 08:19:11;;;;;;;3.40;1.98;;;5.30;99.90;;;;;;7599571;19;20010;-76
2024/02/14 08:21:44;;;;;;;2.63;1.73;;;5.30;99.90;;;;;;7611670;19;20025;-76
2024/02/14 08:24:17;;;;;;;4.55;2.08;;;5.40;99.90;;;;;;7596690;19;20014;-75
2024/02/14 08:26:49;;;;;;;4.25;2.38;;;5.50;99.90;;;;;;7611398;19;20021;-76
2024/02/14 08:29:22;;;;;;;3.90;2.13;;;5.50;99.90;;;;;;7594595;19;20048;-75
2024/02/14 08:31:55;;;;;;;8.93;2.15;;;5.70;99.90;;;;;;7601801;19;20018;-75
2024/02/14 08:34:28;;;;;;;;;;;5.70;99.90;;;;;;7603025;19;20845;-75
2024/02/14 08:37:01;;;;;;;3.13;1.77;;;5.80;99.90;;;;;;7596270;19;20539;-76
2024/02/14 08:39:33;;;;;;;2.95;1.83;;;5.90;99.90;;;;;;7584510;19;20010;-76
2024/02/14 08:42:07;;;;;;;4.78;2.30;;;6.00;99.90;;;;;;7599843;19;20098;-76
2024/02/14 08:44:40;;;;;;;;;;;6.10;99.90;;;;;;7600691;19;20006;-75
2024/02/14 08:47:13;;;;;;;4.18;2.00;;;6.20;99.90;;;;;;7596035;19;19941;-76
2024/02/14 08:49:46;;;;;;;4.40;2.05;;;6.30;99.90;;;;;;7603917;19;20019;-75
2024/02/14 08:52:18;;;;;;;8.85;2.28;;;6.40;99.90;;;;;;7588243;19;20025;-75
2024/02/14 08:54:51;;;;;;;7.30;2.72;;;6.50;99.90;;;;;;7606373;19;20019;-75
2024/02/14 08:57:24;;;;;;;3.65;2.00;;;6.50;99.90;;;;;;7607531;19;20077;-75
2024/02/14 08:59:57;;;;;;;4.72;1.80;;;6.60;99.90;;;;;;7618675;19;20061;-75
2024/02/14 09:02:31;;;;;;;5.93;2.28;;;6.80;99.90;;;;;;7588743;19;20052;-75
2024/02/14 09:05:05;;;;;;;7.00;2.30;;;6.80;99.90;;;;;;7587859;19;20026;-77
2024/02/14 09:07:38;;;;;;;3.88;1.67;;;7.00;99.80;;;;;;7575427;19;20928;-77
2024/02/14 09:10:12;;;;;;;8.60;2.00;;;7.00;99.40;;;;;;7596517;19;20050;-76
2024/02/14 09:12:45;;;;;;;4.72;1.98;;;7.10;99.90;;;;;;7602161;19;20015;-77
2024/02/14 09:15:18;;;;;;;5.03;2.20;;;7.20;99.50;;;;;;7586885;19;20014;-75
2024/02/14 09:17:52;;;;;;;6.03;2.17;;;7.30;98.20;;;;;;7603652;19;20018;-75
2024/02/14 09:20:24;;;;;;;4.63;2.03;;;7.40;98.40;;;;;;7600845;19;20063;-77
2024/02/14 09:22:58;;;;;;;3.45;1.88;;;7.60;97.60;;;;;;7602062;19;20032;-74
2024/02/14 09:25:30;;;;;;;3.33;2.05;;;7.60;97.50;;;;;;7596876;19;20084;-75
2024/02/14 09:28:03;;;;;;;2.88;1.95;;;7.70;97.00;;;;;;7589244;19;20018;-76
2024/02/14 09:30:35;;;;;;;3.13;1.67;;;7.90;96.80;;;;;;7599838;19;20056;-76
2024/02/14 09:33:10;;;;;;;3.72;1.77;;;8.00;96.20;;;;;;7602518;19;20037;-77
2024/02/14 09:35:47;;;;;;;5.80;2.17;;;8.30;95.70;;;;;;7608502;19;20023;-77
2024/02/14 09:38:20;;;;;;;5.18;1.73;;;8.50;95.00;;;;;;7598937;19;20014;-77
2024/02/14 09:41:21;;;;;;;3.97;1.95;;;8.70;94.70;;;;;;7598279;19;20018;-77
2024/02/14 09:43:54;;;;;;;5.15;1.67;;;8.90;94.30;;;;;;7589470;19;20602;-77
2024/02/14 09:46:26;;;;;;;5.15;1.75;;;9.20;93.00;;;;;;7587522;19;20025;-77
2024/02/14 09:48:59;;;;;;;3.72;1.63;;;9.20;92.60;;;;;;7595105;19;21571;-76
2024/02/14 09:51:33;;;;;;;3.53;1.88;;;9.20;92.50;;;;;;7608752;19;20048;-74
2024/02/14 09:54:05;;;;;;;5.60;1.70;;;9.40;92.00;;;;;;7598627;19;20014;-77
2024/02/14 09:56:53;;;;;;;2.90;1.60;;;9.50;91.40;;;;;;7567930;19;20019;-76
2024/02/14 09:59:26;;;;;;;2.22;1.55;;;9.60;91.60;;;;;;7537898;19;20503;-77
2024/02/14 10:01:59;;;;;;;5.68;1.45;;;9.70;92.10;;;;;;7601268;19;20055;-76
2024/02/14 10:04:31;;;;;;;3.35;1.70;;;9.80;91.90;;;;;;7603500;19;20006;-77
2024/02/14 10:07:06;;;;;;;5.00;1.42;;;9.90;92.00;;;;;;7600833;19;20055;-76
2024/02/14 10:09:42;;;;;;;2.80;1.38;;;9.90;92.20;;;;;;7616182;19;20018;-77
2024/02/14 10:12:14;;;;;;;4.40;1.65;;;10.00;91.90;;;;;;7612728;19;20299;-76
2024/02/14 10:14:47;;;;;;;3.53;1.48;;;10.10;90.80;;;;;;7601743;19;20117;-76
2024/02/14 10:17:19;;;;;;;3.63;1.10;;;10.10;91.20;;;;;;7599284;19;22080;-76
2024/02/14 10:19:58;;;;;;;2.65;1.33;;;10.20;90.30;;;;;;7609541;19;20026;-76
2024/02/14 10:22:38;;;;;;;2.90;1.20;;;10.20;90.40;;;;;;7597259;19;20018;-76
2024/02/14 10:25:10;;;;;;;2.00;1.30;;;10.30;90.40;;;;;;7600626;19;20023;-76
2024/02/14 10:27:42;;;;;;;6.87;1.30;;;10.30;90.80;;;;;;7602055;19;20015;-75
2024/02/14 10:30:15;;;;;;;2.78;1.55;;;10.40;89.70;;;;;;7602175;19;20014;-76
2024/02/14 10:32:48;;;;;;;2.45;1.17;;;10.40;89.70;;;;;;7613801;19;20025;-76
2024/02/14 10:35:21;;;;;;;5.20;1.60;;;10.40;90.20;;;;;;7603109;19;20025;-77
2024/02/14 10:38:00;;;;;;;3.33;1.33;;;10.50;89.40;;;;;;7611901;19;20384;-77
2024/02/14 10:40:33;;;;;;;2.72;1.50;;;10.60;89.20;;;;;;7604395;19;20022;-75
2024/02/14 10:43:11;;;;;;;2.10;1.40;;;10.70;88.90;;;;;;7597392;19;20347;-75
2024/02/14 10:45:45;;;;;;;2.67;1.45;;;10.80;90.30;;;;;;7605915;19;20484;-74
2024/02/14 10:48:19;;;;;;;3.50;1.50;;;10.80;89.20;;;;;;7593371;19;20018;-75
2024/02/14 10:50:54;;;;;;;2.60;1.50;;;10.90;90.40;;;;;;7606788;19;21361;-75
2024/02/14 10:53:33;;;;;;;2.47;1.20;;;11.10;89.40;;;;;;7593312;19;20014;-75
2024/02/14 10:56:07;;;;;;;3.58;1.25;;;11.30;87.70;;;;;;7587459;19;20596;-74
2024/02/14 10:58:41;;;;;;;;;;;11.40;88.30;;;;;;7588124;19;20029;-76
2024/02/14 11:01:16;;;;;;;4.22;1.33;;;11.50;87.60;;;;;;7598777;19;19925;-76
2024/02/14 11:03:49;;;;;;;2.83;1.05;;;11.60;86.10;;;;;;7608766;19;20018;-76
2024/02/14 11:06:22;;;;;;;4.57;1.40;;;11.60;87.30;;;;;;7610027;19;20462;-76
2024/02/14 11:09:07;;;;;;;2.05;1.05;;;11.80;86.70;;;;;;7618089;19;20014;-76
2024/02/14 11:11:44;;;;;;;2.75;1.45;;;12.10;86.70;;;;;;7605472;19;20690;-76
2024/02/14 11:14:19;;;;;;;2.75;1.10;;;12.20;85.80;;;;;;7563507;19;20019;-75
2024/02/14 11:16:52;;;;;;;2.97;1.25;;;12.30;85.40;;;;;;7599465;19;20011;-75
2024/02/14 11:19:35;;;;;;;3.65;1.38;;;12.60;85.60;;;;;;7603574;19;21103;-75
2024/02/14 11:22:19;;;;;;;4.22;1.30;;;12.80;82.90;;;;;;7600099;19;20022;-74
2024/02/14 11:24:53;;;;;;;3.03;1.40;;;13.10;81.80;;;;;;7603027;19;20019;-75
2024/02/14 11:27:25;;;;;;;;;;;13.10;82.20;;;;;;7597154;19;20085;-74
2024/02/14 11:30:07;;;;;;;2.45;1.48;;;13.40;82.20;;;;;;7598859;19;20229;-76
2024/02/14 11:32:42;;;;;;;2.63;1.23;;;13.70;81.20;;;;;;7610061;19;20056;-75
2024/02/14 11:35:14;;;;;;;3.53;1.23;;;13.90;79.30;;;;;;7597914;19;20914;-75
2024/02/14 11:37:53;;;;;;;4.82;1.58;;;14.00;82.00;;;;;;7600965;19;20015;-75
2024/02/14 11:40:25;;;;;;;4.30;1.10;;;14.20;78.50;;;;;;7600882;19;20018;-75
2024/02/14 11:42:58;;;;;;;4.78;1.30;;;14.70;77.60;;;;;;7584486;19;20010;-75
2024/02/14 11:45:30;;;;;;;1.60;1.05;;;15.80;76.00;;;;;;7597579;19;20039;-75
2024/02/14 11:48:03;;;;;;;2.13;1.10;;;16.40;72.70;;;;;;7603113;19;20785;-75
2024/02/14 11:50:38;;;;;;;1.83;1.27;;;15.50;73.70;;;;;;7589735;19;20042;-75
2024/02/14 11:53:13;;;;;;;1.35;0.90;;;14.90;76.50;;;;;;7604837;19;20014;-75
2024/02/14 11:55:49;;;;;;;1.88;1.00;;;14.70;76.90;;;;;;7592614;19;20922;-75
2024/02/14 11:58:22;;;;;;;1.25;0.80;;;14.70;79.60;;;;;;7550966;19;21210;-75
2024/02/14 12:00:54;;;;;;;1.30;0.88;;;14.60;78.40;;;;;;7592503;19;20030;-75
2024/02/14 12:03:27;;;;;;;2.67;0.90;;;14.50;79.70;;;;;;7600964;19;21289;-74
2024/02/14 12:05:59;;;;;;;4.10;1.27;;;14.40;78.30;;;;;;7613876;19;20386;-75
2024/02/14 12:08:33;;;;;;;2.45;1.30;;;14.20;79.50;;;;;;7613236;19;20816;-76
2024/02/14 12:11:06;;;;;;;2.40;1.20;;;14.20;80.10;;;;;;7605030;19;20613;-75
2024/02/14 12:13:43;;;;;;;3.90;1.33;;;14.10;80.50;;;;;;7598040;19;21029;-76
2024/02/14 12:16:20;;;;;;;2.90;1.10;;;13.90;82.30;;;;;;7586966;19;20038;-76
2024/02/14 12:19:10;;;;;;;4.22;0.98;;;13.90;80.50;;;;;;7586722;19;20378;-74
2024/02/14 12:21:43;;;;;;;1.27;0.80;;;13.70;80.20;;;;;;7608271;19;20020;-74
2024/02/14 12:24:16;;;;;;;2.60;0.87;;;13.70;81.30;;;;;;7590501;19;20034;-74
2024/02/14 12:26:48;;;;;;;1.92;1.02;;;13.70;80.20;;;;;;7594879;19;20015;-75
2024/02/14 12:29:23;;;;;;;2.50;1.40;;;13.70;80.90;;;;;;7592761;19;20433;-75
2024/02/14 12:32:06;;;;;;;4.05;1.25;;;13.70;80.60;;;;;;7607426;19;20271;-75
2024/02/14 12:34:38;;;;;;;4.00;1.17;;;13.80;82.40;;;;;;7603923;19;20014;-75
2024/02/14 12:37:11;;;;;;;3.43;0.90;;;14.10;82.20;;;;;;7598380;19;20361;-74
2024/02/14 12:39:43;;;;;;;2.42;0.88;;;14.00;80.70;;;;;;7606452;19;20308;-75
2024/02/14 12:42:18;;;;;;;1.48;0.77;;;14.00;79.60;;;;;;7598639;19;20022;-75
2024/02/14 12:44:51;;;;;;;2.97;0.80;;;13.90;78.60;;;;;;7604023;19;20018;-74
2024/02/14 12:47:26;;;;;;;1.83;1.15;;;13.80;78.30;;;;;;7600404;19;20840;-76
2024/02/14 12:49:59;;;;;;;1.30;0.70;;;13.90;78.00;;;;;;7606810;19;20015;-75
2024/02/14 12:52:32;;;;;;;;;;;13.80;77.70;;;;;;7587971;19;20025;-75
2024/02/14 12:55:05;;;;;;;5.50;0.90;;;13.90;79.40;;;;;;7601138;19;19922;-75
2024/02/14 12:57:37;;;;;;;0.90;0.70;;;14.10;78.90;;;;;;7588814;19;20086;-75
2024/02/14 13:00:10;;;;;;;1.45;0.75;;;14.40;79.20;;;;;;7600259;19;20029;-76
2024/02/14 13:02:42;;;;;;;2.42;0.90;;;14.40;76.30;;;;;;7599019;19;20326;-74
2024/02/14 13:05:15;;;;;;;1.58;0.70;;;14.30;77.10;;;;;;7599877;19;20448;-76
2024/02/14 13:07:48;;;;;;;2.45;0.60;;;14.10;77.40;;;;;;7593557;19;20061;-76
2024/02/14 13:10:20;;;;;;;4.60;0.80;;;13.90;79.10;;;;;;7592775;19;20014;-74
2024/02/14 13:12:52;;;;;;;1.40;0.80;;;13.60;82.20;;;;;;7601512;19;20014;-75
2024/02/14 13:15:25;;;;;;;1.60;0.93;;;13.30;90.90;;;;;;7597362;19;20027;-76
2024/02/14 13:17:59;;;;;;;2.10;0.82;;;13.00;92.80;;;;;;7607229;19;20055;-75
2024/02/14 13:20:32;;;;;;;0.90;0.60;;;12.80;93.00;;;;;;7594582;19;20022;-75
2024/02/14 13:23:09;;;;;;;2.05;0.88;;;12.80;93.70;;;;;;7600525;19;20022;-75
2024/02/14 13:25:41;;;;;;;1.55;0.90;;;12.80;93.70;;;;;;7581631;19;20011;-75
2024/02/14 13:28:14;;;;;;;3.38;0.73;;;12.90;93.90;;;;;;7573960;19;20017;-75
2024/02/14 13:30:46;;;;;;;1.38;0.70;;;12.90;92.70;;;;;;7595772;19;20007;-74
2024/02/14 13:33:19;;;;;;;1.23;0.70;;;12.90;92.50;;;;;;7595890;19;20022;-74
2024/02/14 13:35:51;;;;;;;1.20;0.77;;;13.00;92.80;;;;;;7598139;19;20034;-75
2024/02/14 13:38:24;;;;;;;2.30;1.15;;;13.00;92.60;;;;;;7594645;19;20019;-75
2024/02/14 13:40:57;;;;;;;2.60;1.50;;;13.00;92.70;;;;;;7593166;19;20018;-75
2024/02/14 13:43:29;;;;;;;2.08;1.00;;;13.10;91.90;;;;;;7593454;19;20271;-75
2024/02/14 13:46:02;;;;;;;1.50;1.00;;;13.20;91.10;;;;;;7599860;19;20030;-76
2024/02/14 13:48:34;;;;;;;1.50;0.90;;;13.20;90.60;;;;;;7597596;19;20019;-75
2024/02/14 13:51:08;;;;;;;2.08;1.02;;;13.30;91.10;;;;;;7602502;19;20026;-75
2024/02/14 13:53:41;;;;;;;;;;;13.40;90.80;;;;;;7595419;19;20053;-75
2024/02/14 13:56:15;;;;;;;3.33;1.20;;;13.50;90.40;;;;;;7599619;19;19931;-75
2024/02/14 13:58:50;;;;;;;2.22;1.13;;;13.50;90.40;;;;;;7586194;19;20011;-75
2024/02/14 14:01:23;;;;;;;1.80;1.27;;;13.60;90.30;;;;;;7597567;19;20579;-74
2024/02/14 14:03:57;;;;;;;3.78;1.25;;;13.70;89.70;;;;;;7597006;19;20018;-75
2024/02/14 14:06:31;;;;;;;1.33;0.90;;;13.90;90.30;;;;;;7592701;19;20097;-75
2024/02/14 14:09:04;;;;;;;1.42;1.00;;;14.30;88.30;;;;;;7597756;19;20029;-74
2024/02/14 14:11:37;;;;;;;2.72;1.20;;;14.50;86.60;;;;;;7587094;19;20019;-75
2024/02/14 14:14:15;;;;;;;2.45;1.35;;;14.80;84.60;;;;;;7590904;19;20034;-74
2024/02/14 14:16:48;;;;;;;2.55;1.02;;;15.10;83.20;;;;;;7596199;19;20019;-75
2024/02/14 14:19:20;;;;;;;1.98;0.85;;;15.20;80.80;;;;;;7597146;19;20033;-75
2024/02/14 14:21:52;;;;;;;4.03;1.25;;;15.00;80.00;;;;;;7593216;19;20029;-75
2024/02/14 14:24:26;;;;;;;1.88;1.20;;;15.70;82.00;;;;;;7583740;19;20312;-75
2024/02/14 14:26:58;;;;;;;1.25;0.90;;;16.30;78.00;;;;;;7577026;19;20547;-76
2024/02/14 14:29:31;;;;;;;7.50;1.10;;;15.80;78.10;;;;;;7581515;19;20014;-74
2024/02/14 14:32:04;;;;;;;1.15;0.90;;;15.50;78.50;;;;;;7594952;19;20050;-74
2024/02/14 14:34:37;;;;;;;4.95;1.20;;;15.20;80.00;;;;;;7588804;19;20037;-77
2024/02/14 14:37:10;;;;;;;3.75;1.20;;;14.90;80.50;;;;;;7594540;19;20015;-74
2024/02/14 14:39:43;;;;;;;3.47;1.20;;;14.60;82.10;;;;;;7593734;19;20362;-76
2024/02/14 14:42:17;;;;;;;4.00;1.17;;;14.40;83.00;;;;;;7611601;19;20038;-74
2024/02/14 14:44:50;;;;;;;3.05;0.88;;;14.30;83.10;;;;;;7599087;19;20011;-75
2024/02/14 14:47:22;;;;;;;2.83;1.17;;;14.20;84.50;;;;;;7606119;19;20010;-74
2024/02/14 14:49:55;;;;;;;0.68;0.60;;;14.10;85.50;;;;;;7602555;19;20510;-75
2024/02/14 14:52:27;;;;;;;0.98;0.70;;;14.20;85.00;;;;;;7597092;19;20421;-76
2024/02/14 14:54:59;;;;;;;2.83;0.57;;;14.30;85.20;;;;;;7597949;19;20188;-74
2024/02/14 14:57:32;;;;;;;1.23;0.63;;;14.90;85.10;;;;;;7594985;19;20666;-76
2024/02/14 15:00:05;;;;;;;4.30;0.90;;;14.90;84.40;;;;;;7597245;19;20300;-76
2024/02/14 15:02:40;;;;;;;;;;;14.80;85.60;;;;;;7597922;19;20563;-73
2024/02/14 15:05:13;;;;;;;1.35;0.70;;;14.70;85.60;;;;;;7600643;19;19926;-74
2024/02/14 15:07:45;;;;;;;0.98;0.60;;;14.90;86.30;;;;;;7596680;19;20018;-75
2024/02/14 15:10:17;;;;;;;2.92;0.70;;;14.90;85.80;;;;;;7602189;19;20030;-75
2024/02/14 15:12:50;;;;;;;3.30;1.10;;;14.70;87.50;;;;;;7609119;19;20642;-75
2024/02/14 15:15:24;;;;;;;0.70;0.70;;;15.10;87.50;;;;;;7603716;19;20090;-74
2024/02/14 15:17:56;;;;;;;4.72;0.80;;;16.00;85.50;;;;;;7597044;19;20018;-74
2024/02/14 15:20:30;;;;;;;2.13;0.80;;;16.10;83.30;;;;;;7604505;19;20038;-76
2024/02/14 15:23:02;;;;;;;;;;;15.50;84.70;;;;;;7573266;19;20018;-74
2024/02/14 15:25:36;;;;;;;3.53;0.82;;;14.90;86.80;;;;;;7599456;19;19926;-75
2024/02/14 15:28:17;;;;;;;0.95;0.82;;;14.40;88.70;;;;;;7602019;19;20050;-76
2024/02/14 15:33:41;;;;;;;1.60;0.95;;;13.80;90.20;;;;;;7603847;19;20019;-76
2024/02/14 15:36:15;;;;;;;1.23;0.80;;;13.60;90.80;;;;;;7598298;19;20048;-75
2024/02/14 15:38:48;;;;;;;2.83;0.90;;;13.50;90.80;;;;;;7608510;19;20026;-76
2024/02/14 15:41:20;;;;;;;3.55;0.80;;;13.40;91.10;;;;;;7607094;19;20025;-74
2024/02/14 15:43:53;;;;;;;1.25;0.90;;;13.30;91.50;;;;;;7591109;19;20519;-77
2024/02/14 15:46:25;;;;;;;3.45;1.00;;;13.30;91.70;;;;;;7596530;19;20018;-73
2024/02/14 15:48:57;;;;;;;3.33;1.10;;;13.20;91.90;;;;;;7601254;19;20015;-76
2024/02/14 15:51:30;;;;;;;3.67;2.30;;;13.10;92.20;;;;;;7586348;19;20043;-74
2024/02/14 15:54:02;;;;;;;1.88;1.20;;;13.20;92.40;;;;;;7607075;19;20051;-74
2024/02/14 15:56:35;;;;;;;1.92;1.30;;;13.10;92.60;;;;;;7596833;19;20018;-76
2024/02/14 15:59:08;;;;;;;4.43;0.88;;;13.00;92.90;;;;;;7603604;19;20033;-74
2024/02/14 16:01:41;;;;;;;2.53;1.35;;;12.90;92.90;;;;;;7599200;19;20022;-74
2024/02/14 16:04:15;;;;;;;2.80;1.00;;;12.90;93.20;;;;;;7607523;19;20488;-74
2024/02/14 16:06:48;;;;;;;1.20;0.82;;;12.90;93.30;;;;;;7591567;19;20029;-75
2024/02/14 16:09:21;;;;;;;3.05;1.20;;;12.90;93.00;;;;;;7602755;19;27222;-76
2024/02/14 16:11:53;;;;;;;3.85;1.13;;;12.80;93.00;;;;;;7588673;19;20881;-74
2024/02/14 16:14:27;;;;;;;2.65;0.98;;;12.80;93.10;;;;;;7608387;19;20029;-76
2024/02/14 16:17:01;;;;;;;1.55;0.70;;;12.70;93.50;;;;;;7602900;19;20034;-74
2024/02/14 16:19:34;;;;;;;3.08;0.85;;;12.60;93.50;;;;;;7597631;19;20022;-73
2024/02/14 16:22:07;;;;;;;2.55;0.95;;;12.60;93.80;;;;;;7600844;19;21041;-77
2024/02/14 16:24:49;;;;;;;5.75;1.00;;;12.50;94.00;;;;;;7593522;19;20022;-74
2024/02/14 16:27:21;;;;;;;3.13;0.98;;;12.40;93.90;;;;;;7606739;19;20022;-77
2024/02/14 16:29:54;;;;;;;2.65;1.00;;;12.50;94.00;;;;;;7604006;19;20051;-74
2024/02/14 16:32:27;;;;;;;1.58;1.00;;;12.40;94.10;;;;;;7609866;19;20014;-77
2024/02/14 16:34:59;;;;;;;1.95;1.02;;;12.40;94.10;;;;;;7598208;19;20014;-74
2024/02/14 16:37:32;;;;;;;3.30;1.63;;;12.30;94.20;;;;;;7603921;19;20048;-75
2024/02/14 16:40:05;;;;;;;2.13;1.20;;;12.30;94.20;;;;;;7604266;19;20721;-74
2024/02/14 16:42:37;;;;;;;6.00;1.52;;;12.30;94.10;;;;;;7599612;19;20018;-75
2024/02/14 16:45:10;;;;;;;2.67;1.30;;;12.30;94.20;;;;;;7609152;19;20022;-74
2024/02/14 16:47:42;;;;;;;3.22;1.58;;;12.30;94.10;;;;;;7601772;19;20022;-73
2024/02/14 16:50:14;;;;;;;5.03;1.45;;;12.20;94.30;;;;;;7603487;19;20699;-76
2024/02/14 16:52:47;;;;;;;2.25;1.00;;;12.10;94.30;;;;;;7567326;19;20694;-74
2024/02/14 16:55:19;;;;;;;3.92;2.08;;;12.10;94.70;;;;;;7604621;19;20014;-75
2024/02/14 16:57:51;;;;;;;3.80;1.73;;;12.10;94.60;;;;;;7591286;19;20022;-77
2024/02/14 17:00:23;;;;;;;6.60;1.80;;;12.00;94.80;;;;;;7606326;19;20023;-75
2024/02/14 17:02:56;;;;;;;1.70;1.10;;;12.00;94.90;;;;;;7598021;19;20010;-75
2024/02/14 17:05:40;;;;;;;6.30;1.50;;;11.90;95.10;;;;;;7591471;19;20032;-75
2024/02/14 17:08:13;;;;;;;;;;;11.90;95.20;;;;;;7601813;19;20014;-75
2024/02/14 17:10:45;;;;;;;4.07;2.35;;;11.90;95.40;;;;;;7601333;19;19922;-75
2024/02/14 17:13:18;;;;;;;5.47;2.10;;;11.80;95.50;;;;;;7587816;19;20050;-74
2024/02/14 17:15:50;;;;;;;4.20;2.67;;;11.80;95.40;;;;;;7582965;19;20693;-75
2024/02/14 17:18:23;;;;;;;11.55;3.67;;;11.80;95.70;;;;;;7576795;19;20017;-76
2024/02/14 17:20:55;;;;;;;12.73;4.70;;;11.80;95.80;;;;;;7593919;19;20018;-74
2024/02/14 17:23:28;;;;;;;10.32;3.85;;;11.90;96.10;;;;;;7605861;19;20538;-77
2024/02/14 17:26:01;;;;;;;12.13;3.95;;;11.80;96.00;;;;;;7599150;19;20702;-77
2024/02/14 17:28:33;;;;;;;7.03;2.87;;;11.80;96.20;;;;;;7573768;19;20011;-76
2024/02/14 17:31:06;;;;;;;9.10;3.45;;;11.80;96.20;;;;;;7596950;19;20344;-76
2024/02/14 17:33:38;;;;;;;13.25;5.32;;;11.70;96.50;;;;;;7598423;19;20051;-76
2024/02/14 17:36:10;;;;;;;25.08;8.05;;;11.70;96.50;;;;;;7594783;19;20010;-77
2024/02/14 17:38:43;;;;;;;19.83;8.10;;;11.70;96.60;;;;;;7592024;19;20037;-76
2024/02/14 17:41:15;;;;;;;26.60;11.15;;;11.70;96.60;;;;;;7607177;19;20022;-76
2024/02/14 17:43:48;;;;;;;24.63;8.82;;;11.80;96.60;;;;;;7601246;19;20211;-76
2024/02/14 17:46:20;;;;;;;25.05;9.70;;;11.70;96.70;;;;;;7599742;19;20112;-76
2024/02/14 17:48:54;;;;;;;19.90;9.25;;;11.70;96.90;;;;;;7596458;19;20011;-74
2024/02/14 17:51:26;;;;;;;29.20;13.43;;;11.60;97.50;;;;;;7600088;19;20532;-75
2024/02/14 17:53:58;;;;;;;34.63;13.95;;;11.60;97.20;;;;;;7595230;19;20018;-77
2024/02/14 17:56:31;;;;;;;41.72;17.42;;;11.70;97.20;;;;;;7579838;19;20029;-74
2024/02/14 17:59:03;;;;;;;44.42;19.15;;;11.60;97.70;;;;;;7587181;19;20038;-75
2024/02/14 18:01:37;;;;;;;17.83;9.55;;;11.60;97.70;;;;;;7605686;19;20022;-76
2024/02/14 18:04:09;;;;;;;9.52;5.68;;;11.60;97.70;;;;;;7601219;19;20022;-76
2024/02/14 18:06:43;;;;;;;11.15;6.00;;;11.60;97.80;;;;;;7593554;19;20031;-76
2024/02/14 18:09:15;;;;;;;;;;;11.60;97.60;;;;;;7606902;19;20029;-74
2024/02/14 18:11:47;;;;;;;6.25;3.60;;;11.60;97.80;;;;;;7599885;19;20323;-76
2024/02/14 18:14:19;;;;;;;5.40;3.70;;;11.50;98.00;;;;;;7602808;19;20031;-76
2024/02/14 18:16:52;;;;;;;6.80;3.83;;;11.50;98.00;;;;;;7595378;19;20052;-76
2024/02/14 18:19:25;;;;;;;4.93;3.50;;;11.50;98.20;;;;;;7604061;19;20023;-75
2024/02/14 18:21:57;;;;;;;7.28;4.20;;;11.50;98.20;;;;;;7590781;19;20029;-77
2024/02/14 18:24:30;;;;;;;5.95;3.50;;;11.40;98.40;;;;;;7604710;19;20021;-76
2024/02/14 18:27:02;;;;;;;6.75;4.13;;;11.50;98.60;;;;;;7590041;19;20030;-76
2024/02/14 18:29:36;;;;;;;8.45;4.57;;;11.40;98.60;;;;;;7600576;19;20435;-77
2024/02/14 18:32:08;;;;;;;9.27;4.55;;;11.50;98.60;;;;;;7598843;19;20064;-76
2024/02/14 18:34:41;;;;;;;7.05;4.40;;;11.50;98.70;;;;;;7599918;19;20843;-76
2024/02/14 18:37:14;;;;;;;6.70;4.22;;;11.50;99.00;;;;;;7597387;19;20026;-76
2024/02/14 18:39:46;;;;;;;7.60;4.47;;;11.40;99.40;;;;;;7595984;19;20088;-74
2024/02/14 18:42:20;;;;;;;9.63;5.05;;;11.30;99.70;;;;;;7588982;19;20025;-77
2024/02/14 18:44:52;;;;;;;7.68;5.20;;;11.30;99.90;;;;;;7594633;19;20022;-75
2024/02/14 18:47:24;;;;;;;10.48;5.05;;;11.20;99.90;;;;;;7597353;19;20044;-77
2024/02/14 18:49:57;;;;;;;11.93;5.95;;;11.10;99.90;;;;;;7583704;19;20926;-75
2024/02/14 18:52:29;;;;;;;8.88;5.35;;;11.20;99.90;;;;;;7587676;19;20048;-76
2024/02/14 18:55:02;;;;;;;10.40;5.80;;;11.20;99.90;;;;;;7600559;19;20610;-75
2024/02/14 18:57:34;;;;;;;10.63;6.67;;;11.10;99.90;;;;;;7580710;19;20406;-75
2024/02/14 19:00:09;;;;;;;13.57;7.10;;;11.10;99.90;;;;;;7590650;19;20150;-76
2024/02/14 19:02:42;;;;;;;12.45;7.20;;;11.00;99.90;;;;;;7588052;19;20048;-76
2024/02/14 19:05:15;;;;;;;10.02;6.10;;;11.10;99.90;;;;;;7593743;19;20034;-77
2024/02/14 19:07:47;;;;;;;12.30;6.20;;;11.00;99.90;;;;;;7584263;19;20040;-75
2024/02/14 19:10:19;;;;;;;11.68;6.18;;;11.00;99.90;;;;;;7600443;19;20019;-75
2024/02/14 19:12:52;;;;;;;11.23;6.07;;;11.00;99.90;;;;;;7596376;19;20048;-76
2024/02/14 19:15:24;;;;;;;12.00;5.80;;;10.80;99.90;;;;;;7602606;19;20022;-75
2024/02/14 19:17:56;;;;;;;10.98;5.47;;;10.80;99.90;;;;;;7593983;19;20376;-75
2024/02/14 19:20:30;;;;;;;11.65;5.88;;;10.80;99.90;;;;;;7586649;19;20010;-75
2024/02/14 19:23:06;;;;;;;11.43;7.15;;;10.80;99.90;;;;;;7584915;19;20045;-77
2024/02/14 19:25:39;;;;;;;14.50;7.93;;;10.80;99.90;;;;;;7602303;19;20014;-75
2024/02/14 19:28:11;;;;;;;17.15;6.60;;;10.70;99.90;;;;;;7601562;19;20022;-75
2024/02/14 19:30:44;;;;;;;7.60;4.65;;;10.80;99.90;;;;;;7603011;19;20021;-74
2024/02/14 19:33:17;;;;;;;10.18;5.97;;;10.80;99.90;;;;;;7605476;19;20011;-75
2024/02/14 19:35:51;;;;;;;;;;;10.80;99.90;;;;;;7603607;19;20033;-74
2024/02/14 19:38:27;;;;;;;9.60;5.13;;;10.70;99.90;;;;;;7605244;19;19926;-76
2024/02/14 19:40:59;;;;;;;16.15;5.35;;;10.70;99.90;;;;;;7605827;19;20015;-77
2024/02/14 19:43:31;;;;;;;10.68;5.72;;;10.70;99.90;;;;;;7607647;19;20314;-78